Crowley, Louisiana
Current Conditions -  °F | °C
As of 6:35 PM on Wednesday 26 Nov 2014 (Local Time) from K3R7 Reporting Station
Clear Clear  
Wind Chill: 58°   Ceiling: Unl
Heat Index: 58°   Visibility: 10mi
Dew Point: 48°   Wind: 8mph
Humidity: 69%   Direction: 230°SW
Pressure: 30.22"   Gusts: NA
Location:  30.21°N, 92.37°W
Report Text: K3R7 270035Z AUTO 23007KT 10SM CLR 15/09 A3022 RMK AO2 T01460090
Loading
Personal Weather Stations






























Interactive Weather Map New forecast layout! Learn more

10-Day Weather Forecast

Advertisements
Track Severe Weather on mobile